Create Tblcommutelog Verified Points Advance Search
| # | Trip ID | Id Commuter | Trip Date | Trip Num | Current Lat | Current Lng | Delta Distance | Current Time | Activity | Activity Confidence | Current Speed | |
|---|---|---|---|---|---|---|---|---|---|---|---|---|
| 69761 | 250819_786243_16654537_1634 | 786243 | (not set) | (not set) | 39.3922996 | -76.6281827 | 5.6748 | 2025-08-19 16:56:19 | in_vehicle | 100 | 8.6144465206934 | |
| 69762 | 250819_784718_16652718_1638 | 784718 | (not set) | (not set) | 39.086242078237 | -77.019254864131 | 7.9084 | 2025-08-19 17:09:00 | in_vehicle | 100 | 14.908759287241 | |
| 69763 | 250819_786243_16654537_1634 | 786243 | (not set) | (not set) | 39.3957404 | -76.6256339 | 5.9715 | 2025-08-19 16:57:03 | in_vehicle | 100 | 7.5639042620723 | |
| 69764 | 250819_786243_16654537_1634 | 786243 | (not set) | (not set) | 39.3970901 | -76.6240861 | 6.0961 | 2025-08-19 16:57:33 | in_vehicle | 100 | 5.1275403005892 | |
| 69765 | 250819_786243_16654537_1634 | 786243 | (not set) | (not set) | 39.3982385 | -76.6231632 | 6.1895 | 2025-08-19 16:57:56 | in_vehicle | 100 | 4.2692249233328 | |
| 69766 | 250819_786243_16654537_1634 | 786243 | (not set) | (not set) | 39.4005244 | -76.6212291 | 6.3783 | 2025-08-19 16:58:27 | in_vehicle | 100 | 4.5955635823938 | |
| 69767 | 250819_786243_16654537_1634 | 786243 | (not set) | (not set) | 39.4016488 | -76.6201879 | 6.4738 | 2025-08-19 16:58:42 | in_vehicle | 100 | 4.8459055674269 | |
| 69768 | 250819_786243_16654537_1634 | 786243 | (not set) | (not set) | 39.3993432 | -76.6221304 | 6.2836 | 2025-08-19 16:58:12 | in_vehicle | 100 | 4.224520997434 | |
| 69769 | 250819_780745_16648422_1634 | 780745 | (not set) | (not set) | 38.882671783248 | -77.146465869067 | 7.0488 | 2025-08-19 17:10:05 | in_vehicle | 100 | 11.493379348574 | |
| 69770 | 250819_786243_16654537_1634 | 786243 | (not set) | (not set) | 39.4037663 | -76.6178271 | 6.6709 | 2025-08-19 16:59:17 | in_vehicle | 100 | 4.224520997434 | |
| 69771 | 250819_786243_16654537_1634 | 786243 | (not set) | (not set) | 39.4029176 | -76.6192593 | 6.5745 | 2025-08-19 16:58:57 | in_vehicle | 100 | 5.4359973892907 | |
| 69772 | 250819_786243_16654537_1634 | 786243 | (not set) | (not set) | 39.4034798 | -76.6160638 | 6.7674 | 2025-08-19 16:59:37 | in_vehicle | 100 | 4.2915768862822 | |
| 69773 | 250819_786243_16654537_1634 | 786243 | (not set) | (not set) | 39.4030362 | -76.6143664 | 6.8632 | 2025-08-19 16:59:50 | in_vehicle | 100 | 4.4525110195177 | |
| 69774 | 250819_786243_16654537_1634 | 786243 | (not set) | (not set) | 39.4010381 | -76.6136556 | 7.052 | 2025-08-19 17:01:24 | in_vehicle | 100 | 1.6138117249457 | |
| 69775 | 250819_786243_16654537_1634 | 786243 | (not set) | (not set) | 39.4022787 | -76.6129024 | 6.9574 | 2025-08-19 17:00:09 | in_vehicle | 100 | 4.0322941160693 | |
| 69776 | 250819_786243_16654537_1634 | 786243 | (not set) | (not set) | 39.4018076 | -76.6130241 | 7.1149 | 2025-08-19 17:01:45 | in_vehicle | 100 | 3.0130446055773 | |
| 69777 | 250819_786243_16654537_1634 | 786243 | (not set) | (not set) | 39.4025953 | -76.6124546 | 7.1773 | 2025-08-19 17:02:04 | in_vehicle | 100 | 4.1038203975073 | |
| 69778 | 250819_786243_16654537_1634 | 786243 | (not set) | (not set) | 39.402382 | -76.6107287 | 7.2708 | 2025-08-19 17:02:25 | in_vehicle | 100 | 3.4556134719751 | |
| 69779 | 250819_786243_16654537_1634 | 786243 | (not set) | (not set) | 39.4060568 | -76.6079778 | 7.5907 | 2025-08-19 17:03:43 | in_vehicle | 100 | 5.391293463392 | |
| 69780 | 250819_786243_16654537_1634 | 786243 | (not set) | (not set) | 39.4042204 | -76.6080303 | 7.464 | 2025-08-19 17:03:31 | in_vehicle | 100 | 6.1825529518002 |